createdAt,value
2022-12-12T00:00:32.537Z,-11.80
2022-12-12T00:01:32.535Z,-11.71
2022-12-12T00:02:32.617Z,-11.82
2022-12-12T00:03:32.756Z,-11.64
2022-12-12T00:04:32.497Z,-11.88
2022-12-12T00:05:32.485Z,-11.76
2022-12-12T00:06:32.476Z,-11.90
2022-12-12T00:07:32.464Z,-11.80
2022-12-12T00:08:32.509Z,-12.02
2022-12-12T00:09:32.481Z,-11.80
2022-12-12T00:10:32.438Z,-11.67
2022-12-12T00:11:32.428Z,-11.91
2022-12-12T00:12:32.412Z,-11.81
2022-12-12T00:13:32.432Z,-11.87
2022-12-12T00:14:32.394Z,-11.91
2022-12-12T00:15:32.473Z,-11.77
2022-12-12T00:16:32.375Z,-11.90
2022-12-12T00:17:32.360Z,-11.98
2022-12-12T00:18:32.357Z,-11.71
2022-12-12T00:19:32.366Z,-11.85
2022-12-12T00:20:32.338Z,-11.95
2022-12-12T00:21:32.324Z,-11.70
2022-12-12T00:22:32.311Z,-11.99
2022-12-12T00:23:32.308Z,-11.95
2022-12-12T00:24:32.291Z,-11.71
2022-12-12T00:25:32.333Z,-11.88
2022-12-12T00:26:32.274Z,-11.80
2022-12-12T00:27:32.269Z,-11.82
2022-12-12T00:28:32.252Z,-11.70
2022-12-12T00:29:32.247Z,-11.84
2022-12-12T00:30:32.252Z,-11.69
2022-12-12T00:31:32.307Z,-11.66
2022-12-12T00:32:32.212Z,-11.70
2022-12-12T00:33:32.203Z,-11.67
2022-12-12T00:34:32.195Z,-11.73
2022-12-12T00:35:32.182Z,-11.73
2022-12-12T00:36:32.191Z,-11.67
2022-12-12T00:37:32.166Z,-11.61
2022-12-12T00:38:32.154Z,-11.80
2022-12-12T00:39:32.144Z,-11.74
2022-12-12T00:40:32.131Z,-11.67
2022-12-12T00:41:32.218Z,-11.76
2022-12-12T00:42:32.121Z,-11.69
2022-12-12T00:43:32.104Z,-11.71
2022-12-12T00:44:32.091Z,-11.71
2022-12-12T00:45:32.091Z,-11.63
2022-12-12T00:46:32.118Z,-11.77
2022-12-12T00:47:32.070Z,-11.80
2022-12-12T00:48:32.056Z,-11.67
2022-12-12T00:49:32.040Z,-11.63
2022-12-12T00:50:32.046Z,-11.70
2022-12-12T00:51:32.022Z,-11.73
2022-12-12T00:52:32.013Z,-11.81
2022-12-12T00:53:32.013Z,-11.77
2022-12-12T00:54:31.998Z,-11.67
2022-12-12T00:55:31.991Z,-11.69
2022-12-12T00:56:31.973Z,-11.87
2022-12-12T00:57:31.985Z,-11.77
2022-12-12T00:58:31.958Z,-11.77
2022-12-12T00:59:31.944Z,-11.84
2022-12-12T01:00:31.940Z,-11.66
2022-12-12T01:01:32.016Z,-11.63
2022-12-12T01:02:32.026Z,-11.82
2022-12-12T01:03:31.919Z,-11.85
2022-12-12T01:04:31.895Z,-11.71
2022-12-12T01:05:31.885Z,-11.77
2022-12-12T01:06:31.872Z,-11.73
2022-12-12T01:07:31.862Z,-11.76
2022-12-12T01:08:31.857Z,-11.69
2022-12-12T01:09:31.856Z,-11.85
2022-12-12T01:10:31.829Z,-11.85
2022-12-12T01:11:31.825Z,-11.87
2022-12-12T01:12:31.809Z,-11.73
2022-12-12T01:13:31.824Z,-11.91
2022-12-12T01:14:31.805Z,-11.92
2022-12-12T01:15:31.780Z,-11.85
2022-12-12T01:16:31.876Z,-11.90
2022-12-12T01:17:31.758Z,-12.02
2022-12-12T01:18:31.760Z,-11.94
2022-12-12T01:19:31.740Z,-11.94
2022-12-12T01:20:31.742Z,-12.08
2022-12-12T01:21:31.732Z,-12.00
2022-12-12T01:22:31.709Z,-11.92
2022-12-12T01:23:31.702Z,-11.87
2022-12-12T01:24:31.692Z,-11.82
2022-12-12T01:25:31.681Z,-11.71
2022-12-12T01:26:31.673Z,-11.98
2022-12-12T01:27:31.666Z,-11.92
2022-12-12T01:28:31.648Z,-11.88
2022-12-12T01:29:31.729Z,-11.85
2022-12-12T01:30:31.627Z,-11.92
2022-12-12T01:31:31.660Z,-11.95
2022-12-12T01:32:31.611Z,-11.84
2022-12-12T01:33:31.600Z,-11.74
2022-12-12T01:34:31.590Z,-11.88
2022-12-12T01:35:31.580Z,-11.91
2022-12-12T01:36:31.571Z,-11.95
2022-12-12T01:37:31.566Z,-11.73
2022-12-12T01:38:31.571Z,-11.76
2022-12-12T01:39:31.538Z,-11.71
2022-12-12T01:40:31.527Z,-11.76
2022-12-12T01:41:31.518Z,-11.70
2022-12-12T01:42:31.506Z,-11.91
2022-12-12T01:43:31.515Z,-11.84
2022-12-12T01:44:31.616Z,-11.74
2022-12-12T01:45:31.506Z,-11.91
2022-12-12T01:46:31.536Z,-11.88
2022-12-12T01:47:31.456Z,-11.87
2022-12-12T01:48:31.450Z,-11.69
2022-12-12T01:49:31.450Z,-11.98
2022-12-12T01:50:31.445Z,-11.77
2022-12-12T01:51:31.425Z,-11.98
2022-12-12T01:52:31.408Z,-11.82
2022-12-12T01:53:31.405Z,-11.74
2022-12-12T01:54:31.401Z,-11.85
2022-12-12T01:55:31.378Z,-11.92
2022-12-12T01:56:31.369Z,-11.69
2022-12-12T01:57:31.356Z,-11.90
2022-12-12T01:58:31.344Z,-11.91
2022-12-12T01:59:31.336Z,-11.91
2022-12-12T02:00:31.412Z,-11.98
2022-12-12T02:01:31.346Z,-12.08
2022-12-12T02:02:31.372Z,-11.80
2022-12-12T02:03:31.300Z,-11.87
2022-12-12T02:04:31.291Z,-11.74
2022-12-12T02:05:31.279Z,-11.80
2022-12-12T02:06:31.278Z,-11.98
2022-12-12T02:07:31.267Z,-11.90
2022-12-12T02:08:31.364Z,-11.92
2022-12-12T02:09:31.238Z,-12.00
2022-12-12T02:10:31.233Z,-11.94
2022-12-12T02:11:31.219Z,-11.95
2022-12-12T02:12:31.213Z,-11.92
2022-12-12T02:13:31.197Z,-11.87
2022-12-12T02:14:31.196Z,-11.73
2022-12-12T02:15:31.175Z,-11.90
2022-12-12T02:16:31.227Z,-11.91
2022-12-12T02:17:31.180Z,-11.99
2022-12-12T02:18:31.158Z,-11.77
2022-12-12T02:19:31.138Z,-11.92
2022-12-12T02:20:31.127Z,-11.77
2022-12-12T02:21:31.114Z,-11.91
2022-12-12T02:22:31.118Z,-11.90
2022-12-12T02:23:31.093Z,-11.92
2022-12-12T02:24:31.091Z,-11.87
2022-12-12T02:25:31.072Z,-11.90
2022-12-12T02:26:31.078Z,-11.91
2022-12-12T02:27:31.068Z,-11.90
2022-12-12T02:28:31.048Z,-11.90
2022-12-12T02:29:31.031Z,-11.87
2022-12-12T02:30:31.023Z,-11.91
2022-12-12T02:31:31.113Z,-11.99
2022-12-12T02:32:31.007Z,-11.81
2022-12-12T02:33:31.022Z,-11.90
2022-12-12T02:34:30.984Z,-12.05
2022-12-12T02:35:30.973Z,-11.85
2022-12-12T02:36:30.967Z,-11.87
2022-12-12T02:37:30.964Z,-11.98
2022-12-12T02:38:30.946Z,-11.95
2022-12-12T02:39:30.941Z,-11.95
2022-12-12T02:40:30.922Z,-12.03
2022-12-12T02:41:30.921Z,-11.80
2022-12-12T02:42:30.901Z,-11.91
2022-12-12T02:43:30.894Z,-12.06
2022-12-12T02:44:30.882Z,-11.95
2022-12-12T02:45:30.874Z,-11.87
2022-12-12T02:46:30.916Z,-12.02
2022-12-12T02:47:30.860Z,-11.87
2022-12-12T02:48:30.844Z,-11.92
2022-12-12T02:49:30.934Z,-11.85
2022-12-12T02:50:30.838Z,-11.70
2022-12-12T02:51:30.812Z,-11.92
2022-12-12T02:52:30.816Z,-11.84
2022-12-12T02:53:30.789Z,-11.91
2022-12-12T02:54:30.781Z,-11.91
2022-12-12T02:55:35.125Z,-12.00
2022-12-12T02:56:31.766Z,-11.90
2022-12-12T02:57:30.764Z,-11.70
2022-12-12T02:58:30.750Z,-11.82
2022-12-12T02:59:30.731Z,-11.85
2022-12-12T03:00:30.852Z,-11.80
2022-12-12T03:01:30.711Z,-11.85
2022-12-12T03:02:30.717Z,-11.82
2022-12-12T03:03:30.695Z,-11.73
2022-12-12T03:04:30.678Z,-11.92
2022-12-12T03:05:30.698Z,-11.98
2022-12-12T03:06:30.662Z,-12.03
2022-12-12T03:07:30.665Z,-11.98
2022-12-12T03:08:30.688Z,-11.92
2022-12-12T03:09:30.633Z,-11.99
2022-12-12T03:10:30.618Z,-11.87
2022-12-12T03:11:30.610Z,-12.00
2022-12-12T03:12:30.601Z,-11.90
2022-12-12T03:13:30.608Z,-11.81
2022-12-12T03:14:30.587Z,-11.84
2022-12-12T03:15:30.572Z,-11.73
2022-12-12T03:16:30.628Z,-11.77
2022-12-12T03:17:30.549Z,-11.91
2022-12-12T03:18:30.549Z,-11.80
2022-12-12T03:19:30.528Z,-11.90
2022-12-12T03:20:30.538Z,-11.74
2022-12-12T03:21:30.563Z,-11.73
2022-12-12T03:22:30.514Z,-11.80
2022-12-12T03:23:30.489Z,-11.74
2022-12-12T03:24:30.477Z,-11.76
2022-12-12T03:25:30.466Z,-11.70
2022-12-12T03:26:30.464Z,-11.94
2022-12-12T03:27:30.461Z,-11.71
2022-12-12T03:28:30.439Z,-11.82
2022-12-12T03:29:30.430Z,-11.80
2022-12-12T03:30:30.419Z,-11.81
2022-12-12T03:31:30.470Z,-11.87
2022-12-12T03:32:30.419Z,-11.84
2022-12-12T03:33:30.388Z,-11.76
2022-12-12T03:34:30.379Z,-12.00
2022-12-12T03:35:30.367Z,-11.81
2022-12-12T03:36:30.358Z,-11.80
2022-12-12T03:37:30.481Z,-11.71
2022-12-12T03:38:30.350Z,-11.85
2022-12-12T03:39:30.328Z,-11.84
2022-12-12T03:40:30.319Z,-11.92
2022-12-12T03:41:30.305Z,-11.91
2022-12-12T03:42:30.298Z,-11.92
2022-12-12T03:43:30.304Z,-11.91
2022-12-12T03:44:30.304Z,-11.76
2022-12-12T03:45:30.354Z,-11.82
2022-12-12T03:46:30.261Z,-11.71
2022-12-12T03:47:30.244Z,-11.82
2022-12-12T03:48:30.243Z,-11.66
2022-12-12T03:49:30.236Z,-11.69
2022-12-12T03:50:30.217Z,-11.88
2022-12-12T03:51:30.208Z,-11.91
2022-12-12T03:52:30.198Z,-11.99
2022-12-12T03:53:30.271Z,-11.87
2022-12-12T03:54:30.185Z,-11.85
2022-12-12T03:55:30.165Z,-11.99
2022-12-12T03:56:30.177Z,-11.88
2022-12-12T03:57:30.150Z,-11.81
2022-12-12T03:58:30.137Z,-11.81
2022-12-12T03:59:30.127Z,-11.92
2022-12-12T04:00:30.123Z,-11.92
2022-12-12T04:01:30.204Z,-11.90
2022-12-12T04:02:30.176Z,-11.91
2022-12-12T04:03:30.084Z,-11.81
2022-12-12T04:04:30.078Z,-11.92
2022-12-12T04:05:30.068Z,-11.90
2022-12-12T04:06:30.058Z,-11.80
2022-12-12T04:07:30.043Z,-11.94
2022-12-12T04:08:30.158Z,-11.76
2022-12-12T04:09:30.053Z,-11.94
2022-12-12T04:10:30.024Z,-11.82
2022-12-12T04:11:30.005Z,-11.98
2022-12-12T04:12:29.998Z,-11.88
2022-12-12T04:13:32.285Z,-11.91
2022-12-12T04:14:29.995Z,-11.94
2022-12-12T04:15:29.975Z,-11.88
2022-12-12T04:16:30.018Z,-11.94
2022-12-12T04:17:29.946Z,-11.84
2022-12-12T04:18:29.933Z,-11.95
2022-12-12T04:19:29.925Z,-11.87
2022-12-12T04:20:29.929Z,-12.00
2022-12-12T04:21:29.906Z,-12.09
2022-12-12T04:22:29.898Z,-11.98
2022-12-12T04:23:29.887Z,-11.94
2022-12-12T04:24:29.879Z,-11.95
2022-12-12T04:25:29.887Z,-11.88
2022-12-12T04:26:29.865Z,-11.73
2022-12-12T04:27:29.848Z,-11.91
2022-12-12T04:28:29.837Z,-11.81
2022-12-12T04:29:29.823Z,-11.87
2022-12-12T04:30:29.822Z,-11.85
2022-12-12T04:31:29.859Z,-11.80
2022-12-12T04:32:29.811Z,-11.82
2022-12-12T04:33:29.787Z,-11.87
2022-12-12T04:34:29.774Z,-11.94
2022-12-12T04:35:29.765Z,-11.85
2022-12-12T04:36:29.757Z,-11.80
2022-12-12T04:37:29.752Z,-11.81
2022-12-12T04:38:30.266Z,-11.82
2022-12-12T04:39:29.720Z,-11.90
2022-12-12T04:40:29.710Z,-11.94
2022-12-12T04:41:29.730Z,-11.81
2022-12-12T04:42:29.690Z,-11.91
2022-12-12T04:43:29.688Z,-11.94
2022-12-12T04:44:29.692Z,-11.76
2022-12-12T04:45:29.750Z,-11.94
2022-12-12T04:46:29.653Z,-11.91
2022-12-12T04:47:29.641Z,-11.88
2022-12-12T04:48:29.643Z,-11.94
2022-12-12T04:49:29.618Z,-11.74
2022-12-12T04:50:29.613Z,-11.76
2022-12-12T04:51:29.601Z,-11.82
2022-12-12T04:52:29.591Z,-11.88
2022-12-12T04:53:29.589Z,-11.76
2022-12-12T04:54:29.593Z,-11.73
2022-12-12T04:55:29.561Z,-11.81
2022-12-12T04:56:29.555Z,-11.87
2022-12-12T04:57:29.569Z,-11.64
2022-12-12T04:58:29.533Z,-11.94
2022-12-12T04:59:29.523Z,-11.80
2022-12-12T05:00:29.521Z,-11.87
2022-12-12T05:01:29.547Z,-11.80
2022-12-12T05:02:29.590Z,-11.81
2022-12-12T05:03:29.487Z,-11.74
2022-12-12T05:04:29.467Z,-11.85
2022-12-12T05:05:29.472Z,-11.67
2022-12-12T05:06:29.453Z,-11.76
2022-12-12T05:07:29.454Z,-11.61
2022-12-12T05:08:29.471Z,-11.56
2022-12-12T05:09:29.424Z,-11.69
2022-12-12T05:10:29.413Z,-11.63
2022-12-12T05:11:29.404Z,-11.76
2022-12-12T05:12:29.413Z,-11.69
2022-12-12T05:13:29.408Z,-11.64
2022-12-12T05:14:29.372Z,-11.74
2022-12-12T05:15:29.360Z,-11.74
2022-12-12T05:16:29.380Z,-11.63
2022-12-12T05:17:29.343Z,-11.70
2022-12-12T05:18:29.336Z,-11.74
2022-12-12T05:19:29.325Z,-11.67
2022-12-12T05:20:29.312Z,-11.74
2022-12-12T05:21:29.327Z,-11.70
2022-12-12T05:22:29.289Z,-11.71
2022-12-12T05:23:34.450Z,-11.76
2022-12-12T05:24:30.269Z,-11.66
2022-12-12T05:25:29.260Z,-11.73
2022-12-12T05:26:29.248Z,-11.70
2022-12-12T05:27:29.255Z,-11.61
2022-12-12T05:28:29.235Z,-11.66
2022-12-12T05:29:29.265Z,-11.66
2022-12-12T05:30:29.309Z,-11.73
2022-12-12T05:31:29.202Z,-11.71
2022-12-12T05:32:29.189Z,-11.63
2022-12-12T05:33:29.181Z,-11.64
2022-12-12T05:34:29.168Z,-11.61
2022-12-12T05:35:29.379Z,-11.64
2022-12-12T05:36:29.155Z,-11.55
2022-12-12T05:37:29.137Z,-11.66
2022-12-12T05:38:29.129Z,-11.67
2022-12-12T05:39:29.120Z,-11.61
2022-12-12T05:40:29.205Z,-11.52
2022-12-12T05:41:29.103Z,-11.50
2022-12-12T05:42:29.086Z,-11.56
2022-12-12T05:43:29.086Z,-11.70
2022-12-12T05:44:29.064Z,-11.69
2022-12-12T05:45:29.087Z,-11.64
2022-12-12T05:46:29.092Z,-11.76
2022-12-12T05:47:29.040Z,-11.70
2022-12-12T05:48:29.026Z,-11.92
2022-12-12T05:49:29.019Z,-11.84
2022-12-12T05:50:29.006Z,-11.67
2022-12-12T05:51:28.999Z,-11.66
2022-12-12T05:52:28.999Z,-11.77
2022-12-12T05:53:28.974Z,-11.69
2022-12-12T05:54:29.021Z,-11.67
2022-12-12T05:55:28.959Z,-11.70
2022-12-12T05:56:28.950Z,-11.67
2022-12-12T05:57:28.946Z,-11.55
2022-12-12T05:58:28.924Z,-11.61
2022-12-12T05:59:28.931Z,-11.66
2022-12-12T06:00:28.918Z,-11.64
2022-12-12T06:01:28.939Z,-11.55
2022-12-12T06:02:28.944Z,-11.56
2022-12-12T06:03:28.877Z,-11.61
2022-12-12T06:04:28.982Z,-11.56
2022-12-12T06:05:28.863Z,-11.58
2022-12-12T06:06:28.845Z,-11.69
2022-12-12T06:07:28.837Z,-11.64
2022-12-12T06:08:28.877Z,-11.60
2022-12-12T06:09:28.814Z,-11.71
2022-12-12T06:10:28.815Z,-11.55
2022-12-12T06:11:28.793Z,-11.63
2022-12-12T06:12:28.784Z,-11.60
2022-12-12T06:13:28.779Z,-11.49
2022-12-12T06:14:28.764Z,-11.52
2022-12-12T06:15:28.791Z,-11.55
2022-12-12T06:16:28.757Z,-11.56
2022-12-12T06:17:33.115Z,-11.39
2022-12-12T06:18:28.731Z,-11.52
2022-12-12T06:19:28.712Z,-11.43
2022-12-12T06:20:28.703Z,-11.38
2022-12-12T06:21:28.712Z,-11.24
2022-12-12T06:22:28.679Z,-11.42
2022-12-12T06:23:28.669Z,-11.39
2022-12-12T06:24:28.663Z,-11.32
2022-12-12T06:25:28.650Z,-11.35
2022-12-12T06:26:28.642Z,-11.39
2022-12-12T06:27:28.733Z,-11.32
2022-12-12T06:28:28.621Z,-11.49
2022-12-12T06:29:28.608Z,-11.50
2022-12-12T06:30:28.604Z,-11.38
2022-12-12T06:31:28.636Z,-11.49
2022-12-12T06:32:28.583Z,-11.38
2022-12-12T06:33:28.613Z,-11.46
2022-12-12T06:34:28.560Z,-11.28
2022-12-12T06:35:28.579Z,-11.46
2022-12-12T06:36:28.542Z,-11.45
2022-12-12T06:37:28.534Z,-11.37
2022-12-12T06:38:28.519Z,-11.29
2022-12-12T06:39:28.513Z,-11.43
2022-12-12T06:40:28.498Z,-11.46
2022-12-12T06:41:28.501Z,-11.38
2022-12-12T06:42:28.483Z,-11.32
2022-12-12T06:43:28.471Z,-11.31
2022-12-12T06:44:28.464Z,-11.28
2022-12-12T06:45:28.452Z,-11.17
2022-12-12T06:46:28.474Z,-11.34
2022-12-12T06:47:28.443Z,-11.29
2022-12-12T06:48:28.428Z,-11.35
2022-12-12T06:49:28.440Z,-11.28
2022-12-12T06:50:28.398Z,-11.29
2022-12-12T06:51:28.393Z,-11.43
2022-12-12T06:52:28.380Z,-11.32
2022-12-12T06:53:28.380Z,-11.19
2022-12-12T06:54:28.366Z,-11.29
2022-12-12T06:55:28.349Z,-11.31
2022-12-12T06:56:28.341Z,-11.29
2022-12-12T06:57:28.339Z,-11.25
2022-12-12T06:58:28.322Z,-11.11
2022-12-12T06:59:28.310Z,-11.13
2022-12-12T07:00:28.306Z,-11.25
2022-12-12T07:01:28.394Z,-11.10
2022-12-12T07:02:30.212Z,-11.29
2022-12-12T07:03:28.284Z,-11.16
2022-12-12T07:04:28.258Z,-11.20
2022-12-12T07:05:28.294Z,-11.38
2022-12-12T07:06:28.247Z,-11.29
2022-12-12T07:07:28.238Z,-11.25
2022-12-12T07:08:28.377Z,-11.24
2022-12-12T07:09:28.207Z,-11.27
2022-12-12T07:10:28.201Z,-11.11
2022-12-12T07:11:28.571Z,-11.09
2022-12-12T07:12:28.179Z,-11.13
2022-12-12T07:13:28.179Z,-11.16
2022-12-12T07:14:28.155Z,-11.13
2022-12-12T07:15:28.147Z,-11.06
2022-12-12T07:16:28.181Z,-11.22
2022-12-12T07:17:28.129Z,-11.27
2022-12-12T07:18:28.128Z,-11.19
2022-12-12T07:19:28.120Z,-11.07
2022-12-12T07:20:28.098Z,-11.00
2022-12-12T07:21:28.117Z,-10.98
2022-12-12T07:22:28.080Z,-11.06
2022-12-12T07:23:28.070Z,-11.17
2022-12-12T07:24:28.062Z,-11.11
2022-12-12T07:25:28.065Z,-11.04
2022-12-12T07:26:28.040Z,-11.17
2022-12-12T07:27:28.026Z,-11.11
2022-12-12T07:28:28.013Z,-10.92
2022-12-12T07:29:28.004Z,-10.99
2022-12-12T07:30:28.000Z,-10.99
2022-12-12T07:31:28.051Z,-10.99
2022-12-12T07:32:27.978Z,-11.11
2022-12-12T07:33:37.004Z,-11.09
2022-12-12T07:34:28.952Z,-11.09
2022-12-12T07:35:27.944Z,-11.04
2022-12-12T07:36:28.043Z,-11.06
2022-12-12T07:37:27.955Z,-10.96
2022-12-12T07:38:27.919Z,-11.02
2022-12-12T07:39:27.906Z,-10.96
2022-12-12T07:40:27.893Z,-10.96
2022-12-12T07:41:27.881Z,-10.85
2022-12-12T07:42:27.896Z,-10.90
2022-12-12T07:43:27.889Z,-10.95
2022-12-12T07:44:27.856Z,-10.89
2022-12-12T07:45:27.841Z,-10.78
2022-12-12T07:46:27.974Z,-10.85
2022-12-12T07:47:27.829Z,-10.81
2022-12-12T07:48:27.953Z,-10.70
2022-12-12T07:49:27.806Z,-10.88
2022-12-12T07:50:27.793Z,-10.86
2022-12-12T07:51:27.785Z,-10.80
2022-12-12T07:52:27.789Z,-10.78
2022-12-12T07:53:27.790Z,-10.63
2022-12-12T07:54:27.757Z,-10.81
2022-12-12T07:55:27.745Z,-10.77
2022-12-12T07:56:27.737Z,-10.77
2022-12-12T07:57:27.723Z,-10.78
2022-12-12T07:58:27.724Z,-10.71
2022-12-12T07:59:27.703Z,-10.88
2022-12-12T08:00:27.818Z,-10.80
2022-12-12T08:01:27.735Z,-10.71
2022-12-12T08:02:27.678Z,-10.70
2022-12-12T08:03:27.675Z,-10.85
2022-12-12T08:04:27.740Z,-10.74
2022-12-12T08:05:27.642Z,-10.71
2022-12-12T08:06:27.651Z,-10.63
2022-12-12T08:07:27.637Z,-10.66
2022-12-12T08:08:27.707Z,-10.56
2022-12-12T08:09:27.623Z,-10.67
2022-12-12T08:10:27.655Z,-10.67
2022-12-12T08:11:27.577Z,-10.66
2022-12-12T08:12:27.587Z,-10.62
2022-12-12T08:13:27.564Z,-10.60
2022-12-12T08:14:27.550Z,-10.57
2022-12-12T08:15:27.537Z,-10.53
2022-12-12T08:16:27.639Z,-10.57
2022-12-12T08:17:27.517Z,-10.56
2022-12-12T08:18:27.528Z,-10.52
2022-12-12T08:19:27.497Z,-10.50
2022-12-12T08:20:27.503Z,-10.41
2022-12-12T08:21:27.483Z,-10.44
2022-12-12T08:22:27.471Z,-10.46
2022-12-12T08:23:27.463Z,-10.41
2022-12-12T08:24:27.537Z,-10.50
2022-12-12T08:25:27.464Z,-10.50
2022-12-12T08:26:27.429Z,-10.46
2022-12-12T08:27:27.418Z,-10.37
2022-12-12T08:28:27.449Z,-10.46
2022-12-12T08:29:27.401Z,-10.23
2022-12-12T08:30:27.406Z,-10.44
2022-12-12T08:31:27.512Z,-10.24
2022-12-12T08:32:27.369Z,-10.32
2022-12-12T08:33:27.354Z,-10.32
2022-12-12T08:34:27.355Z,-10.31
2022-12-12T08:35:27.347Z,-10.34
2022-12-12T08:36:27.337Z,-10.44
2022-12-12T08:37:27.321Z,-10.28
2022-12-12T08:38:27.304Z,-10.32
2022-12-12T08:39:27.296Z,-10.23
2022-12-12T08:40:27.292Z,-10.29
2022-12-12T08:41:27.337Z,-10.11
2022-12-12T08:42:27.267Z,-10.26
2022-12-12T08:43:27.263Z,-10.34
2022-12-12T08:44:27.254Z,-10.41
2022-12-12T08:45:27.238Z,-10.38
2022-12-12T08:46:27.292Z,-10.46
2022-12-12T08:47:27.225Z,-10.34
2022-12-12T08:48:27.208Z,-10.23
2022-12-12T08:49:27.209Z,-10.20
2022-12-12T08:50:27.183Z,-10.37
2022-12-12T08:51:27.172Z,-10.37
2022-12-12T08:52:27.168Z,-10.38
2022-12-12T08:53:27.162Z,-10.49
2022-12-12T08:54:27.158Z,-10.44
2022-12-12T08:55:27.146Z,-10.35
2022-12-12T08:56:27.124Z,-10.41
2022-12-12T08:57:27.140Z,-10.23
2022-12-12T08:58:27.101Z,-10.13
2022-12-12T08:59:27.109Z,-10.18
2022-12-12T09:00:27.085Z,-10.13
2022-12-12T09:01:27.139Z,-10.18
2022-12-12T09:02:27.332Z,-10.23
2022-12-12T09:03:29.393Z,-10.13
2022-12-12T09:04:27.073Z,-10.21
2022-12-12T09:05:27.050Z,-10.17
2022-12-12T09:06:27.023Z,-10.10
2022-12-12T09:07:27.013Z,-10.00
2022-12-12T09:08:27.039Z,-10.05
2022-12-12T09:09:26.994Z,-10.20
2022-12-12T09:10:26.998Z,-9.96
2022-12-12T09:11:26.988Z,-9.72
2022-12-12T09:12:26.962Z,-9.79
2022-12-12T09:13:26.976Z,-9.87
2022-12-12T09:14:26.940Z,-9.99
2022-12-12T09:15:26.929Z,-9.93
2022-12-12T09:16:26.996Z,-9.93
2022-12-12T09:17:26.912Z,-9.95
2022-12-12T09:18:26.903Z,-9.95
2022-12-12T09:19:26.889Z,-9.97
2022-12-12T09:20:26.881Z,-10.17
2022-12-12T09:21:26.870Z,-10.03
2022-12-12T09:22:26.877Z,-9.95
2022-12-12T09:23:26.864Z,-10.00
2022-12-12T09:24:26.841Z,-9.93
2022-12-12T09:25:26.830Z,-10.11
2022-12-12T09:26:26.820Z,-9.81
2022-12-12T09:27:26.810Z,-9.88
2022-12-12T09:28:26.819Z,-9.93
2022-12-12T09:29:26.848Z,-9.90
2022-12-12T09:30:26.781Z,-9.85
2022-12-12T09:31:26.866Z,-9.81
2022-12-12T09:32:26.762Z,-10.08
2022-12-12T09:33:26.749Z,-9.72
2022-12-12T09:34:26.748Z,-9.46
2022-12-12T09:35:26.743Z,-9.30
2022-12-12T09:36:26.719Z,-9.34
2022-12-12T09:37:26.712Z,-8.73
2022-12-12T09:38:26.698Z,-8.21
2022-12-12T09:39:26.793Z,-7.24
2022-12-12T09:40:26.675Z,-6.35
2022-12-12T09:41:26.667Z,-5.84
2022-12-12T09:42:26.658Z,-5.57
2022-12-12T09:43:29.625Z,-4.88
2022-12-12T09:44:26.639Z,-4.46
2022-12-12T09:45:26.731Z,-3.86
2022-12-12T09:46:26.617Z,-4.02
2022-12-12T09:47:26.610Z,-4.01
2022-12-12T09:48:26.692Z,-4.15
2022-12-12T09:49:26.588Z,-4.01
2022-12-12T09:50:26.586Z,-3.69
2022-12-12T09:51:26.565Z,-3.69
2022-12-12T09:52:30.932Z,-3.41
2022-12-12T09:53:26.542Z,-3.21
2022-12-12T09:54:26.555Z,-3.30
2022-12-12T09:55:26.522Z,-3.94
2022-12-12T09:56:26.514Z,-3.89
2022-12-12T09:57:26.503Z,-3.55
2022-12-12T09:58:26.489Z,-3.21
2022-12-12T09:59:26.490Z,-3.62
2022-12-12T10:00:26.485Z,-3.69
2022-12-12T10:01:27.176Z,-3.46
2022-12-12T10:02:26.524Z,-3.59
2022-12-12T10:03:26.441Z,-3.40
2022-12-12T10:04:26.431Z,-3.30
2022-12-12T10:05:26.446Z,-3.33
2022-12-12T10:06:36.904Z,-3.18
2022-12-12T10:07:27.400Z,-3.37
2022-12-12T10:08:26.450Z,-3.65
2022-12-12T10:09:26.378Z,-3.65
2022-12-12T10:10:26.365Z,-3.64
2022-12-12T10:11:26.367Z,-3.39
2022-12-12T10:12:26.351Z,-3.34
2022-12-12T10:13:26.341Z,-3.02
2022-12-12T10:14:26.325Z,-3.43
2022-12-12T10:15:26.320Z,-3.83
2022-12-12T10:16:26.520Z,-4.13
2022-12-12T10:17:26.320Z,-4.02
2022-12-12T10:18:26.395Z,-3.88
2022-12-12T10:19:26.277Z,-3.57
2022-12-12T10:20:26.260Z,-3.58
2022-12-12T10:21:26.268Z,-3.62
2022-12-12T10:22:26.458Z,-3.69
2022-12-12T10:23:26.232Z,-3.46
2022-12-12T10:24:26.233Z,-2.69
2022-12-12T10:25:26.230Z,-2.48
2022-12-12T10:26:26.206Z,-2.44
2022-12-12T10:27:26.203Z,-2.33
2022-12-12T10:28:26.178Z,-2.77
2022-12-12T10:29:26.189Z,-2.83
2022-12-12T10:30:26.155Z,-2.65
2022-12-12T10:31:26.255Z,-2.53
2022-12-12T10:32:26.144Z,-2.03
2022-12-12T10:33:26.156Z,-1.92
2022-12-12T10:34:26.117Z,-1.54
2022-12-12T10:35:27.014Z,-1.78
2022-12-12T10:36:26.097Z,-1.70
2022-12-12T10:37:26.112Z,-1.43
2022-12-12T10:38:26.076Z,-1.44
2022-12-12T10:39:26.066Z,-1.47
2022-12-12T10:40:26.056Z,-1.85
2022-12-12T10:41:26.044Z,-1.83
2022-12-12T10:42:26.032Z,-2.00
2022-12-12T10:43:26.032Z,-2.24
2022-12-12T10:44:26.013Z,-2.64
2022-12-12T10:45:26.079Z,-2.55
2022-12-12T10:46:26.251Z,-3.00
2022-12-12T10:47:25.984Z,-3.23
2022-12-12T10:48:25.971Z,-3.19
2022-12-12T10:49:25.984Z,-3.12
2022-12-12T10:50:25.945Z,-3.07
2022-12-12T10:51:25.942Z,-2.69
2022-12-12T10:52:25.938Z,-2.40
2022-12-12T10:53:25.919Z,-1.89
2022-12-12T10:54:25.910Z,-1.95
2022-12-12T10:55:25.900Z,-2.68
2022-12-12T10:56:25.891Z,-2.59
2022-12-12T10:57:25.886Z,-2.68
2022-12-12T10:58:25.864Z,-2.79
2022-12-12T10:59:25.870Z,-2.89
2022-12-12T11:00:25.845Z,-2.46
2022-12-12T11:01:52.399Z,-2.18
2022-12-12T11:02:26.995Z,-2.08
2022-12-12T11:03:25.835Z,-2.22
2022-12-12T11:04:25.801Z,-2.44
2022-12-12T11:05:25.818Z,-2.51
2022-12-12T11:06:25.782Z,-2.50
2022-12-12T11:07:25.775Z,-2.55
2022-12-12T11:08:25.855Z,-2.56
2022-12-12T11:09:25.763Z,-2.79
2022-12-12T11:10:30.458Z,-2.41
2022-12-12T11:11:26.737Z,-2.53
2022-12-12T11:12:25.729Z,-2.64
2022-12-12T11:13:25.703Z,-2.43
2022-12-12T11:14:25.709Z,-2.44
2022-12-12T11:15:25.686Z,-2.51
2022-12-12T11:16:25.725Z,-2.46
2022-12-12T11:17:25.681Z,-2.41
2022-12-12T11:18:25.667Z,-2.46
2022-12-12T11:19:25.644Z,-2.41
2022-12-12T11:20:25.635Z,-2.43
2022-12-12T11:21:25.648Z,-2.24
2022-12-12T11:22:25.612Z,-2.04
2022-12-12T11:23:25.609Z,-1.72
2022-12-12T11:24:25.598Z,-1.95
2022-12-12T11:25:25.583Z,-1.77
2022-12-12T11:26:25.572Z,-1.49
2022-12-12T11:27:25.562Z,-1.46
2022-12-12T11:28:25.550Z,-1.31
2022-12-12T11:29:25.570Z,-1.50
2022-12-12T11:30:25.531Z,-1.62
2022-12-12T11:31:25.576Z,-1.98
2022-12-12T11:32:25.520Z,-1.89
2022-12-12T11:33:25.494Z,-1.92
2022-12-12T11:34:25.489Z,-2.04
2022-12-12T11:35:25.488Z,-1.89
2022-12-12T11:36:25.463Z,-2.16
2022-12-12T11:37:25.478Z,-2.22
2022-12-12T11:38:25.441Z,-2.16
2022-12-12T11:39:25.432Z,-2.08
2022-12-12T11:40:25.423Z,-2.29
2022-12-12T11:41:25.419Z,-2.41
2022-12-12T11:42:25.402Z,-2.44
2022-12-12T11:43:25.387Z,-2.22
2022-12-12T11:44:25.386Z,-1.82
2022-12-12T11:45:25.368Z,-1.88
2022-12-12T11:46:25.361Z,-2.22
2022-12-12T11:47:25.447Z,-2.33
2022-12-12T11:48:25.339Z,-2.33
2022-12-12T11:49:25.327Z,-2.43
2022-12-12T11:50:25.321Z,-2.29
2022-12-12T11:51:25.303Z,-2.07
2022-12-12T11:52:25.298Z,-2.16
2022-12-12T11:53:25.325Z,-2.74
2022-12-12T11:54:25.276Z,-2.86
2022-12-12T11:55:25.258Z,-2.50
2022-12-12T11:56:25.250Z,-2.29
2022-12-12T11:57:25.240Z,-2.44
2022-12-12T11:58:25.243Z,-2.51
2022-12-12T11:59:25.223Z,-2.68
2022-12-12T12:00:25.220Z,-2.58
2022-12-12T12:01:25.198Z,-2.95
2022-12-12T12:02:25.187Z,-2.94
2022-12-12T12:03:25.261Z,-2.98
2022-12-12T12:04:25.316Z,-3.40
2022-12-12T12:05:25.158Z,-3.58
2022-12-12T12:06:25.148Z,-3.37
2022-12-12T12:07:25.135Z,-3.19
2022-12-12T12:08:25.162Z,-3.34
2022-12-12T12:09:25.287Z,-3.70
2022-12-12T12:10:26.277Z,-3.83
2022-12-12T12:11:25.096Z,-3.80
2022-12-12T12:12:25.082Z,-3.89
2022-12-12T12:13:25.074Z,-4.09
2022-12-12T12:14:25.063Z,-4.07
2022-12-12T12:15:25.066Z,-4.13
2022-12-12T12:16:25.105Z,-4.13
2022-12-12T12:17:25.028Z,-4.31
2022-12-12T12:18:28.068Z,-4.41
2022-12-12T12:19:25.009Z,-4.41
2022-12-12T12:20:24.998Z,-4.34
2022-12-12T12:21:24.999Z,-4.45
2022-12-12T12:22:24.975Z,-4.48
2022-12-12T12:23:24.970Z,-4.46
2022-12-12T12:24:24.955Z,-4.49
2022-12-12T12:25:24.970Z,-4.73
2022-12-12T12:26:24.944Z,-4.67
2022-12-12T12:27:24.924Z,-4.70
2022-12-12T12:28:24.916Z,-4.85
2022-12-12T12:29:24.899Z,-4.84
2022-12-12T12:30:24.979Z,-4.83
2022-12-12T12:31:24.885Z,-4.90
2022-12-12T12:32:24.882Z,-4.69
2022-12-12T12:33:24.868Z,-4.72
2022-12-12T12:34:24.865Z,-4.81